Terminal Aerodrome Forecast
Issued by NWS

Home | Current Version | Previous Version | Text Only | Print | Product List | Glossary On
Versions: 1 2 3 4 5 6 7 8 9 10 11 12 13 14
000
FTUS42 KMLB 271700
TAFTIX
TAF
KTIX 271722Z 2718/2818 04006KT P6SM SCT022 SCT120
     FM280300 06003KT P6SM BKN020 OVC040
      TEMPO 2803/2806 5SM BR BKN012 OVC025
     FM280600 00000KT 5SM BR BKN012 OVC025
     FM280900 00000KT 3SM BR OVC008
      TEMPO 2809/2812 1SM BR OVC004=

USA.gov is the U.S. government's official web portal to all federal, state and local government web resources and services.